Time;durP1;ratioP1;P1;durP2;ratioP2;P2;SDS_P1;SDS_P2;PMS_P1;PMS_P2;Temp;Humidity;BMP_temperature;BMP_pressure;BME280_temperature;BME280_humidity;BME280_pressure;Samples;Min_cycle;Max_cycle;Signal;HPM_P1;HPM_P2
2022/05/25 00:00:24;;;;;;;5.57;4.70;;;11.50;99.90;;;;;;5089456;28;20068;-77
2022/05/25 00:02:49;;;;;;;8.77;4.95;;;11.50;99.90;;;;;;5090844;28;20144;-77
2022/05/25 00:05:16;;;;;;;5.88;4.60;;;11.40;99.90;;;;;;5090309;28;20048;-77
2022/05/25 00:07:43;;;;;;;6.95;4.90;;;11.40;99.90;;;;;;5106841;28;20131;-77
2022/05/25 00:10:09;;;;;;;8.07;5.05;;;11.40;99.90;;;;;;5090023;28;20076;-77
2022/05/25 00:12:35;;;;;;;5.82;4.18;;;11.40;99.90;;;;;;5088800;28;20048;-77
2022/05/25 00:15:01;;;;;;;7.60;5.05;;;11.40;99.90;;;;;;5090306;28;20044;-77
2022/05/25 00:17:27;;;;;;;9.45;5.65;;;11.30;99.90;;;;;;5090486;28;20131;-77
2022/05/25 00:20:01;;;;;;;7.25;5.13;;;11.30;99.90;;;;;;5108593;28;20059;-77
2022/05/25 00:22:40;;;;;;;7.90;5.07;;;11.30;99.90;;;;;;5107220;28;20044;-77
2022/05/25 00:25:08;;;;;;;6.20;5.20;;;11.20;99.90;;;;;;5089691;28;20087;-77
2022/05/25 00:27:34;;;;;;;7.10;4.95;;;11.10;99.90;;;;;;5089928;28;20052;-77
2022/05/25 00:30:00;;;;;;;6.88;6.18;;;11.00;99.90;;;;;;5090611;28;20044;-77
2022/05/25 00:32:26;;;;;;;6.80;5.18;;;11.10;99.90;;;;;;5090104;28;20094;-77
2022/05/25 00:34:52;;;;;;;6.45;5.13;;;11.00;99.90;;;;;;5089475;28;20052;-77
2022/05/25 00:37:18;;;;;;;8.50;5.43;;;11.10;99.90;;;;;;5106860;28;20050;-77
2022/05/25 00:39:43;;;;;;;5.68;5.05;;;11.00;99.90;;;;;;5106292;28;20044;-77
2022/05/25 00:42:09;;;;;;;6.97;5.72;;;11.00;99.90;;;;;;5090280;28;20036;-77
2022/05/25 00:44:35;;;;;;;9.10;5.97;;;10.90;99.90;;;;;;5090836;28;20048;-77
2022/05/25 00:47:00;;;;;;;7.22;5.78;;;10.90;99.90;;;;;;5090814;28;20058;-77
2022/05/25 00:49:32;;;;;;;8.35;5.45;;;10.90;99.90;;;;;;5107392;28;20044;-77
2022/05/25 00:52:05;;;;;;;7.60;5.57;;;10.90;99.90;;;;;;5090653;28;20062;-77
2022/05/25 00:54:33;;;;;;;8.60;5.93;;;11.00;99.90;;;;;;5089534;28;20056;-77
2022/05/25 00:57:04;;;;;;;8.98;6.35;;;11.00;99.90;;;;;;5089003;28;20044;-77
2022/05/25 00:59:34;;;;;;;7.03;5.57;;;11.00;99.90;;;;;;5089207;28;20097;-77
2022/05/25 01:02:00;;;;;;;9.40;5.68;;;11.00;99.90;;;;;;5090828;28;20075;-77
2022/05/25 01:04:26;;;;;;;8.07;5.95;;;11.10;99.90;;;;;;5107134;28;20048;-77
2022/05/25 01:07:20;;;;;;;5.80;5.20;;;11.00;99.90;;;;;;5106318;28;20075;-77
2022/05/25 01:10:02;;;;;;;8.05;6.13;;;11.10;99.90;;;;;;5089882;28;20051;-77
2022/05/25 01:12:56;;;;;;;7.10;5.90;;;11.10;99.90;;;;;;5107311;28;20086;-77
2022/05/25 01:15:27;;;;;;;10.13;6.40;;;11.10;99.90;;;;;;5084436;28;20051;-77
2022/05/25 01:18:12;;;;;;;7.10;5.70;;;11.00;99.90;;;;;;5106304;28;20050;-77
2022/05/25 01:20:45;;;;;;;7.57;6.32;;;11.10;99.90;;;;;;5090769;28;20044;-77
2022/05/25 01:23:32;;;;;;;;;;;11.00;99.90;;;;;;5089867;28;20112;-77
2022/05/25 01:26:27;;;;;;;7.43;6.00;;;10.90;99.90;;;;;;5090244;28;19974;-77
2022/05/25 01:28:58;;;;;;;7.90;6.13;;;10.90;99.90;;;;;;5105819;28;20104;-77
2022/05/25 01:31:47;;;;;;;7.55;6.55;;;10.90;99.90;;;;;;5088611;28;20055;-77
2022/05/25 01:34:20;;;;;;;7.45;6.25;;;10.90;99.90;;;;;;5088627;28;20072;-77
2022/05/25 01:37:07;;;;;;;9.50;6.88;;;10.90;99.90;;;;;;5088466;28;20047;-77
2022/05/25 01:39:41;;;;;;;8.45;6.28;;;10.80;99.90;;;;;;5088693;28;20047;-77
2022/05/25 01:42:20;;;;;;;7.80;6.05;;;10.90;99.90;;;;;;5087591;28;20040;-77
2022/05/25 01:44:51;;;;;;;10.63;6.88;;;10.80;99.90;;;;;;5086286;28;20074;-77
2022/05/25 01:47:19;;;;;;;8.48;6.30;;;10.80;99.90;;;;;;5105153;28;20083;-77
2022/05/25 01:49:55;;;;;;;8.70;6.28;;;10.70;99.90;;;;;;5104613;28;20108;-77
2022/05/25 01:52:26;;;;;;;7.82;5.70;;;10.70;99.90;;;;;;5087797;28;20048;-77
2022/05/25 01:54:55;;;;;;;8.30;6.35;;;10.70;99.90;;;;;;5087272;28;20070;-77
2022/05/25 01:57:23;;;;;;;7.65;6.35;;;10.70;99.90;;;;;;5087068;28;20071;-77
2022/05/25 01:59:49;;;;;;;10.23;6.20;;;10.70;99.90;;;;;;5087354;28;20113;-77
2022/05/25 02:05:05;;;;;;;10.23;5.95;;;10.60;99.90;;;;;;5104590;28;20048;-77
2022/05/25 02:08:16;;;;;;;8.48;6.00;;;10.60;99.90;;;;;;5086510;28;20051;-77
2022/05/25 02:11:14;;;;;;;7.80;6.30;;;10.60;99.90;;;;;;5009815;28;20128;-77
2022/05/25 02:14:23;;;;;;;10.05;5.70;;;10.60;99.90;;;;;;5010995;28;20057;-77
2022/05/25 02:17:16;;;;;;;7.70;6.68;;;10.60;99.90;;;;;;5034503;28;20136;-78
2022/05/25 02:19:59;;;;;;;6.78;6.07;;;10.60;99.90;;;;;;5026413;28;20053;-77
2022/05/25 02:22:42;;;;;;;8.85;6.88;;;10.60;99.90;;;;;;5011682;28;20045;-77
2022/05/25 02:25:24;;;;;;;9.55;6.90;;;10.60;99.90;;;;;;5010713;28;20049;-77
2022/05/25 02:28:00;;;;;;;8.23;6.15;;;10.60;99.90;;;;;;5026732;28;20050;-77
2022/05/25 02:30:30;;;;;;;9.75;7.35;;;10.60;99.90;;;;;;5026738;28;20057;-77
2022/05/25 02:32:55;;;;;;;11.35;7.85;;;10.60;99.90;;;;;;5026477;28;20050;-77
2022/05/25 02:35:23;;;;;;;10.35;7.78;;;10.50;99.90;;;;;;5010084;28;20084;-77
2022/05/25 02:37:51;;;;;;;9.35;7.85;;;10.50;99.90;;;;;;5010225;28;20104;-77
2022/05/25 02:40:17;;;;;;;10.43;8.18;;;10.50;99.90;;;;;;5030967;28;20049;-77
2022/05/25 02:42:43;;;;;;;10.55;8.55;;;10.50;99.90;;;;;;5103441;28;20085;-77
2022/05/25 02:45:10;;;;;;;9.50;7.97;;;10.50;99.90;;;;;;5087315;28;20099;-77
2022/05/25 02:47:37;;;;;;;12.15;9.55;;;10.50;99.90;;;;;;5087890;28;20044;-77
2022/05/25 02:50:04;;;;;;;10.32;9.32;;;10.50;99.90;;;;;;5086330;28;20050;-77
2022/05/25 02:52:30;;;;;;;9.52;8.27;;;10.40;99.90;;;;;;5087140;28;20079;-77
2022/05/25 02:54:56;;;;;;;9.68;8.02;;;10.50;99.90;;;;;;5095219;28;20074;-80
2022/05/25 02:57:22;;;;;;;11.45;9.18;;;10.40;99.90;;;;;;5075570;28;20044;-79
2022/05/25 02:59:47;;;;;;;13.93;9.48;;;10.40;99.90;;;;;;5092863;28;20055;-80
2022/05/25 03:02:15;;;;;;;12.38;10.57;;;10.40;99.90;;;;;;5075973;28;20036;-80
2022/05/25 03:04:41;;;;;;;11.00;9.02;;;10.40;99.90;;;;;;5075518;28;20040;-80
2022/05/25 03:07:08;;;;;;;10.75;9.25;;;10.40;99.90;;;;;;5092602;28;20087;-79
2022/05/25 03:09:37;;;;;;;12.90;9.50;;;10.30;99.90;;;;;;5075402;28;20048;-80
2022/05/25 03:12:04;;;;;;;11.55;9.52;;;10.30;99.90;;;;;;5091861;28;20133;-80
2022/05/25 03:14:30;;;;;;;12.57;9.75;;;10.30;99.90;;;;;;5091847;28;20051;-80
2022/05/25 03:16:55;;;;;;;12.32;9.20;;;10.30;99.90;;;;;;5091583;28;20048;-80
2022/05/25 03:19:22;;;;;;;13.32;10.52;;;10.20;99.90;;;;;;5093534;28;20405;-80
2022/05/25 03:21:47;;;;;;;12.10;9.77;;;10.20;99.90;;;;;;5096758;28;20093;-80
2022/05/25 03:24:14;;;;;;;11.10;9.77;;;10.20;99.90;;;;;;5079233;28;20052;-80
2022/05/25 03:26:39;;;;;;;11.18;9.20;;;10.20;99.90;;;;;;5079094;28;20047;-79
2022/05/25 03:29:09;;;;;;;15.32;9.82;;;10.20;99.90;;;;;;5079352;28;20470;-81
2022/05/25 03:31:36;;;;;;;10.45;9.27;;;10.20;99.90;;;;;;5096105;28;20127;-81
2022/05/25 03:34:01;;;;;;;13.88;9.75;;;10.20;99.90;;;;;;5079088;28;20055;-81
2022/05/25 03:36:27;;;;;;;11.52;10.07;;;10.20;99.90;;;;;;5079799;28;20036;-80
2022/05/25 03:38:52;;;;;;;10.75;8.75;;;10.20;99.90;;;;;;5078983;28;20220;-80
2022/05/25 03:41:18;;;;;;;10.82;9.20;;;10.20;99.90;;;;;;5095972;28;20135;-80
2022/05/25 03:43:45;;;;;;;11.05;9.18;;;10.20;99.90;;;;;;5095965;28;20082;-80
2022/05/25 03:46:11;;;;;;;12.27;8.48;;;10.30;99.90;;;;;;5096109;28;20126;-79
2022/05/25 03:48:36;;;;;;;11.65;9.48;;;10.30;99.90;;;;;;5079274;28;20056;-79
2022/05/25 03:51:02;;;;;;;11.35;8.55;;;10.30;99.90;;;;;;5095901;28;20044;-79
2022/05/25 03:53:28;;;;;;;11.80;10.30;;;10.30;99.90;;;;;;5095962;28;20044;-79
2022/05/25 03:55:54;;;;;;;14.10;10.63;;;10.30;99.90;;;;;;5095762;28;20123;-79
2022/05/25 03:58:19;;;;;;;12.02;10.73;;;10.30;99.90;;;;;;5095631;28;20047;-79
2022/05/25 04:00:45;;;;;;;13.00;10.18;;;10.30;99.90;;;;;;5078934;28;20464;-79
2022/05/25 04:03:13;;;;;;;14.80;10.00;;;10.30;99.90;;;;;;5078867;28;20218;-79
2022/05/25 04:05:39;;;;;;;14.45;9.68;;;10.30;99.90;;;;;;5078942;28;20127;-80
2022/05/25 04:08:05;;;;;;;13.82;11.00;;;10.30;99.90;;;;;;5078974;28;20481;-80
2022/05/25 04:10:31;;;;;;;11.48;10.30;;;10.30;99.90;;;;;;5078445;28;20492;-80
2022/05/25 04:12:56;;;;;;;12.40;11.05;;;10.30;99.90;;;;;;5077965;28;20056;-80
2022/05/25 04:15:25;;;;;;;12.40;9.90;;;10.30;99.90;;;;;;5095216;28;20043;-80
2022/05/25 04:17:51;;;;;;;11.45;10.25;;;10.40;99.90;;;;;;5078597;28;20048;-79
2022/05/25 04:20:17;;;;;;;12.23;10.15;;;10.40;99.90;;;;;;5095726;28;20046;-79
2022/05/25 04:22:44;;;;;;;10.77;9.43;;;10.40;99.90;;;;;;5078448;28;20567;-80
2022/05/25 04:25:12;;;;;;;11.05;9.80;;;10.40;99.90;;;;;;5078395;28;20063;-81
2022/05/25 04:27:39;;;;;;;14.55;10.35;;;10.40;99.90;;;;;;5094704;28;20040;-80
2022/05/25 04:30:06;;;;;;;13.30;9.77;;;10.50;99.90;;;;;;5094357;28;20040;-79
2022/05/25 04:32:32;;;;;;;13.15;10.48;;;10.50;99.90;;;;;;5077049;28;20557;-80
2022/05/25 04:34:58;;;;;;;14.57;10.73;;;10.50;99.90;;;;;;5077726;28;20126;-80
2022/05/25 04:40:11;;;;;;;13.75;10.50;;;10.50;99.90;;;;;;5094418;28;20040;-80
2022/05/25 04:42:36;;;;;;;14.38;10.65;;;10.50;99.90;;;;;;5094763;28;20492;-81
2022/05/25 04:45:03;;;;;;;16.33;11.77;;;10.60;99.90;;;;;;5094719;28;20051;-81
2022/05/25 04:47:31;;;;;;;13.13;11.05;;;10.60;99.90;;;;;;5077818;28;20039;-80
2022/05/25 04:49:58;;;;;;;13.57;10.98;;;10.70;99.90;;;;;;5077428;28;20131;-80
2022/05/25 04:52:24;;;;;;;14.15;11.40;;;10.70;99.90;;;;;;5077495;28;20114;-80
2022/05/25 04:54:50;;;;;;;13.93;10.65;;;10.80;99.90;;;;;;5077195;28;20094;-80
2022/05/25 04:57:27;;;;;;;12.57;11.27;;;10.80;99.90;;;;;;5077344;28;20147;-79
2022/05/25 05:00:03;;;;;;;15.70;12.05;;;10.90;99.90;;;;;;5077651;28;20046;-81
2022/05/25 05:02:29;;;;;;;14.40;11.52;;;10.90;99.90;;;;;;5094798;28;20040;-80
2022/05/25 05:04:56;;;;;;;14.90;11.60;;;10.90;99.90;;;;;;5077098;28;20525;-80
2022/05/25 05:07:33;;;;;;;15.20;10.98;;;10.90;99.90;;;;;;5094077;28;20496;-79
2022/05/25 05:10:03;;;;;;;16.08;12.32;;;11.00;99.90;;;;;;5077498;28;20450;-79
2022/05/25 05:12:29;;;;;;;13.93;11.32;;;11.10;99.90;;;;;;5077624;28;20143;-80
2022/05/25 05:14:57;;;;;;;15.32;11.88;;;11.10;99.90;;;;;;5094190;28;20401;-80
2022/05/25 05:17:23;;;;;;;15.93;11.80;;;11.10;99.90;;;;;;5077543;28;20459;-79
2022/05/25 05:19:49;;;;;;;18.38;11.60;;;11.20;99.90;;;;;;5094395;28;20078;-80
2022/05/25 05:22:15;;;;;;;13.18;11.57;;;11.20;99.90;;;;;;5077101;28;20044;-80
2022/05/25 05:24:40;;;;;;;13.63;11.60;;;11.30;99.90;;;;;;5077017;28;20485;-80
2022/05/25 05:27:08;;;;;;;14.07;11.45;;;11.30;99.90;;;;;;5093808;28;20052;-79
2022/05/25 05:29:33;;;;;;;14.00;12.02;;;11.40;99.90;;;;;;5076771;28;20052;-79
2022/05/25 05:31:59;;;;;;;14.32;11.85;;;11.40;99.90;;;;;;5076315;28;20476;-80
2022/05/25 05:34:28;;;;;;;17.02;12.30;;;11.40;99.90;;;;;;5076182;28;20052;-80
2022/05/25 05:37:10;;;;;;;14.57;11.73;;;11.50;99.90;;;;;;5093604;28;20075;-80
2022/05/25 05:39:40;;;;;;;14.25;12.10;;;11.60;99.90;;;;;;5076713;28;20040;-80
2022/05/25 05:42:09;;;;;;;16.38;11.43;;;11.70;99.90;;;;;;5076133;28;20051;-80
2022/05/25 05:44:44;;;;;;;18.75;12.38;;;11.70;99.90;;;;;;5076864;28;20052;-80
2022/05/25 05:47:14;;;;;;;17.70;11.70;;;11.80;99.90;;;;;;5093130;28;20122;-79
2022/05/25 05:49:41;;;;;;;14.20;11.05;;;11.80;99.90;;;;;;5093355;28;20056;-79
2022/05/25 05:52:07;;;;;;;14.27;11.63;;;11.90;99.90;;;;;;5076903;28;20048;-81
2022/05/25 05:54:33;;;;;;;14.52;10.70;;;11.90;99.90;;;;;;5093022;28;20076;-81
2022/05/25 05:57:00;;;;;;;16.45;11.38;;;12.00;99.90;;;;;;5092890;28;20102;-80
2022/05/25 05:59:26;;;;;;;12.88;10.90;;;12.10;99.90;;;;;;5075892;28;20089;-80
2022/05/25 06:01:52;;;;;;;16.83;10.80;;;12.10;99.90;;;;;;5075928;28;20044;-80
2022/05/25 06:04:19;;;;;;;13.95;11.13;;;12.20;99.90;;;;;;5092795;28;20052;-80
2022/05/25 06:06:44;;;;;;;20.73;10.85;;;12.20;99.90;;;;;;5093150;28;20083;-79
2022/05/25 06:09:10;;;;;;;16.80;11.20;;;12.30;99.90;;;;;;5093380;28;20087;-80
2022/05/25 06:11:41;;;;;;;14.13;10.40;;;12.40;99.90;;;;;;5093407;28;20044;-80
2022/05/25 06:14:07;;;;;;;15.88;10.98;;;12.40;99.90;;;;;;5076306;28;20492;-80
2022/05/25 06:19:26;;;;;;;14.23;11.57;;;12.60;99.90;;;;;;5094242;28;20129;-80
2022/05/25 06:22:07;;;;;;;16.35;10.88;;;12.70;99.90;;;;;;5093103;28;20091;-80
2022/05/25 06:24:45;;;;;;;15.57;10.38;;;12.70;99.90;;;;;;5093389;28;20040;-80
2022/05/25 06:27:12;;;;;;;12.85;10.45;;;12.80;99.90;;;;;;5075884;28;20056;-79
2022/05/25 06:29:39;;;;;;;12.57;10.05;;;12.90;99.90;;;;;;5076051;28;20048;-80
2022/05/25 06:32:06;;;;;;;18.10;10.98;;;13.00;99.90;;;;;;5092675;28;20052;-80
2022/05/25 06:34:33;;;;;;;16.50;10.40;;;13.10;99.90;;;;;;5092649;28;20094;-80
2022/05/25 06:36:58;;;;;;;13.85;11.20;;;13.10;99.90;;;;;;5093014;28;20043;-80
2022/05/25 06:39:24;;;;;;;16.05;11.00;;;13.20;99.90;;;;;;5076178;28;20469;-80
2022/05/25 06:41:50;;;;;;;18.42;10.18;;;13.30;99.90;;;;;;5075895;28;20040;-80
2022/05/25 06:44:17;;;;;;;16.00;10.75;;;13.40;99.90;;;;;;5075832;28;20040;-80
2022/05/25 06:46:43;;;;;;;12.02;9.77;;;13.40;99.90;;;;;;5076163;28;20127;-80
2022/05/25 06:49:09;;;;;;;13.93;10.85;;;13.50;99.90;;;;;;5092431;28;20139;-80
2022/05/25 06:51:36;;;;;;;15.98;11.10;;;13.60;99.90;;;;;;5092941;28;20047;-80
2022/05/25 06:54:02;;;;;;;16.02;10.98;;;13.60;99.90;;;;;;5092878;28;20048;-80
2022/05/25 06:56:28;;;;;;;18.48;11.05;;;13.70;99.90;;;;;;5096829;28;20123;-80
2022/05/25 06:58:55;;;;;;;15.57;11.10;;;13.70;99.90;;;;;;5079835;28;20075;-80
2022/05/25 07:01:22;;;;;;;15.52;10.80;;;13.70;99.90;;;;;;5080061;28;20051;-80
2022/05/25 07:03:48;;;;;;;15.98;11.60;;;13.80;99.90;;;;;;5080164;28;20048;-80
2022/05/25 07:06:17;;;;;;;13.85;10.70;;;14.00;99.90;;;;;;5079587;28;20048;-79
2022/05/25 07:08:43;;;;;;;12.57;10.30;;;14.10;99.90;;;;;;5079719;28;20125;-80
2022/05/25 07:11:11;;;;;;;11.98;9.35;;;14.10;99.90;;;;;;5079790;28;20585;-80
2022/05/25 07:13:37;;;;;;;11.05;9.73;;;14.20;99.90;;;;;;5079849;28;20051;-80
2022/05/25 07:16:05;;;;;;;14.10;8.95;;;14.30;99.90;;;;;;5079595;28;20036;-80
2022/05/25 07:18:32;;;;;;;14.93;9.90;;;14.30;99.90;;;;;;5079596;28;20102;-80
2022/05/25 07:21:04;;;;;;;13.38;9.48;;;14.40;99.90;;;;;;5096515;28;20036;-80
2022/05/25 07:23:31;;;;;;;13.45;9.30;;;14.50;99.90;;;;;;5096362;28;20044;-80
2022/05/25 07:25:57;;;;;;;11.48;7.82;;;14.50;99.90;;;;;;5079032;28;20101;-80
2022/05/25 07:28:22;;;;;;;16.23;9.38;;;14.60;99.90;;;;;;5096165;28;20131;-80
2022/05/25 07:30:51;;;;;;;13.30;7.75;;;14.60;99.90;;;;;;5096557;28;20051;-80
2022/05/25 07:33:17;;;;;;;12.43;7.95;;;14.70;99.90;;;;;;5096204;28;20114;-80
2022/05/25 07:35:43;;;;;;;13.38;8.60;;;14.80;99.90;;;;;;5096126;28;20044;-80
2022/05/25 07:38:08;;;;;;;14.70;7.80;;;14.90;99.90;;;;;;5079159;28;20047;-80
2022/05/25 07:40:37;;;;;;;9.82;7.00;;;15.00;99.90;;;;;;5079157;28;20135;-80
2022/05/25 07:43:09;;;;;;;10.85;7.75;;;15.20;99.90;;;;;;5096377;28;20044;-80
2022/05/25 07:45:35;;;;;;;8.80;6.70;;;15.30;99.90;;;;;;5079567;28;20050;-80
2022/05/25 07:48:01;;;;;;;11.05;6.53;;;15.50;99.90;;;;;;5079144;28;20043;-80
2022/05/25 07:50:28;;;;;;;10.13;4.82;;;15.60;99.90;;;;;;5095805;28;20040;-80
2022/05/25 07:52:55;;;;;;;7.18;4.90;;;15.70;99.90;;;;;;5078784;28;20054;-80
2022/05/25 07:55:21;;;;;;;10.73;5.57;;;15.80;99.90;;;;;;5096059;28;20110;-80
2022/05/25 07:57:48;;;;;;;10.57;6.20;;;15.90;99.90;;;;;;5079368;28;20454;-80
2022/05/25 08:00:15;;;;;;;10.43;6.38;;;15.90;99.90;;;;;;5095762;28;20055;-80
2022/05/25 08:05:47;;;;;;;8.20;4.30;;;16.10;99.90;;;;;;5095291;28;20052;-80
2022/05/25 08:08:18;;;;;;;7.03;4.00;;;16.10;99.90;;;;;;5095823;28;20044;-80
2022/05/25 08:11:00;;;;;;;8.23;4.28;;;16.10;99.90;;;;;;5078562;28;20109;-80
2022/05/25 08:13:26;;;;;;;8.27;4.32;;;16.20;99.90;;;;;;5078222;28;20048;-80
2022/05/25 08:15:51;;;;;;;6.50;3.70;;;16.30;99.90;;;;;;5078497;28;20127;-80
2022/05/25 08:18:19;;;;;;;6.18;3.65;;;16.40;99.90;;;;;;5094880;28;20503;-80
2022/05/25 08:20:45;;;;;;;7.05;4.25;;;16.60;99.90;;;;;;5094927;28;20044;-80
2022/05/25 08:23:14;;;;;;;6.28;4.47;;;16.60;99.90;;;;;;5078615;28;20106;-80
2022/05/25 08:25:40;;;;;;;5.85;3.58;;;16.80;99.90;;;;;;5078363;28;20040;-80
2022/05/25 08:28:06;;;;;;;10.45;3.95;;;16.80;99.90;;;;;;5094765;28;20047;-80
2022/05/25 08:30:34;;;;;;;6.28;4.25;;;16.70;99.90;;;;;;5094733;28;20066;-80
2022/05/25 08:33:00;;;;;;;8.82;4.20;;;16.80;99.90;;;;;;5077832;28;20504;-80
2022/05/25 08:35:27;;;;;;;5.90;3.38;;;17.00;99.90;;;;;;5077865;28;20051;-80
2022/05/25 08:37:53;;;;;;;9.85;3.85;;;17.20;99.90;;;;;;5077856;28;20048;-80
2022/05/25 08:40:21;;;;;;;7.18;4.15;;;17.40;99.90;;;;;;5094374;28;20040;-80
2022/05/25 08:42:55;;;;;;;6.85;3.10;;;17.50;99.90;;;;;;5094435;28;20423;-80
2022/05/25 08:45:24;;;;;;;5.78;3.10;;;17.70;99.90;;;;;;5094398;28;20412;-80
2022/05/25 08:47:57;;;;;;;4.97;2.90;;;17.90;99.90;;;;;;5094034;28;20036;-80
2022/05/25 08:50:24;;;;;;;4.55;2.35;;;18.00;99.90;;;;;;5078004;28;20075;-80
2022/05/25 08:52:54;;;;;;;3.72;2.20;;;18.10;99.90;;;;;;5094072;28;20044;-80
2022/05/25 08:55:45;;;;;;;8.50;2.42;;;18.10;99.90;;;;;;5095064;28;20047;-80
2022/05/25 08:58:13;;;;;;;7.35;2.45;;;17.90;99.90;;;;;;5077192;28;20411;-80
2022/05/25 09:00:41;;;;;;;3.83;2.10;;;17.80;99.90;;;;;;5094484;28;20048;-80
2022/05/25 09:03:25;;;;;;;6.95;2.50;;;17.80;99.90;;;;;;5094016;28;20492;-80
2022/05/25 09:06:02;;;;;;;7.45;2.40;;;17.90;99.90;;;;;;5077112;28;20048;-80
2022/05/25 09:09:01;;;;;;;4.50;2.55;;;17.90;99.90;;;;;;5094001;28;20062;-80
2022/05/25 09:11:34;;;;;;;6.25;2.70;;;17.90;99.90;;;;;;5093814;28;20114;-80
2022/05/25 09:14:23;;;;;;;4.28;2.00;;;17.90;99.90;;;;;;5076721;28;20055;-80
2022/05/25 09:16:52;;;;;;;4.30;2.55;;;17.90;99.90;;;;;;5093325;28;20493;-80
2022/05/25 09:19:22;;;;;;;8.45;2.78;;;18.00;99.90;;;;;;5077475;28;20048;-80
2022/05/25 09:22:08;;;;;;;6.68;2.53;;;17.90;99.90;;;;;;5076788;28;20519;-80
2022/05/25 09:24:35;;;;;;;5.88;2.20;;;17.90;99.90;;;;;;5076650;28;20054;-80
2022/05/25 09:27:02;;;;;;;6.05;2.30;;;17.90;99.90;;;;;;5093758;28;20516;-80
2022/05/25 09:29:28;;;;;;;5.30;2.00;;;18.00;99.90;;;;;;5093329;28;20562;-80
2022/05/25 09:32:15;;;;;;;6.30;2.22;;;18.10;99.90;;;;;;5076725;28;20044;-80
2022/05/25 09:34:43;;;;;;;7.28;2.53;;;18.30;99.90;;;;;;5093450;28;20500;-80
2022/05/25 09:37:19;;;;;;;4.57;2.03;;;18.20;99.90;;;;;;5076595;28;20083;-80
2022/05/25 09:39:45;;;;;;;5.85;2.40;;;18.20;99.90;;;;;;5076407;28;20047;-80
2022/05/25 09:42:17;;;;;;;5.88;2.70;;;18.20;99.90;;;;;;5093587;28;20044;-80
2022/05/25 09:44:48;;;;;;;6.35;2.83;;;18.20;99.90;;;;;;5093659;28;20047;-80
2022/05/25 09:47:23;;;;;;;3.83;2.40;;;18.30;99.90;;;;;;5093116;28;20108;-80
2022/05/25 09:49:52;;;;;;;5.63;1.88;;;18.20;99.90;;;;;;5076210;28;20052;-80
2022/05/25 09:52:46;;;;;;;6.63;1.70;;;18.40;99.90;;;;;;5093038;28;20051;-80
2022/05/25 09:55:20;;;;;;;5.00;1.98;;;18.60;99.90;;;;;;5092774;28;20135;-80
2022/05/25 09:58:09;;;;;;;4.63;2.08;;;18.70;99.90;;;;;;5092936;28;20047;-80
2022/05/25 10:00:57;;;;;;;4.95;2.45;;;18.80;99.90;;;;;;5092826;28;20055;-80
2022/05/25 10:03:36;;;;;;;5.25;2.33;;;18.80;99.90;;;;;;5076139;28;20078;-80
2022/05/25 10:06:24;;;;;;;5.65;2.97;;;18.60;99.90;;;;;;5092906;28;20098;-80
2022/05/25 10:09:12;;;;;;;7.07;2.33;;;18.40;99.90;;;;;;5076190;28;20467;-80
2022/05/25 10:11:42;;;;;;;5.28;2.15;;;18.00;99.90;;;;;;5079008;28;20050;-81
2022/05/25 10:14:30;;;;;;;7.88;2.97;;;17.80;99.90;;;;;;5094279;28;20094;-80
2022/05/25 10:17:05;;;;;;;3.85;2.10;;;17.80;99.90;;;;;;5093241;28;20040;-80
2022/05/25 10:19:33;;;;;;;5.63;2.08;;;17.90;99.90;;;;;;5093852;28;20052;-80
2022/05/25 10:21:59;;;;;;;5.47;1.90;;;17.80;99.90;;;;;;5094427;28;20102;-80
2022/05/25 10:24:32;;;;;;;3.90;2.20;;;17.80;99.90;;;;;;5094214;28;20087;-80
2022/05/25 10:27:00;;;;;;;2.92;1.98;;;17.70;99.90;;;;;;5094141;28;20044;-79
2022/05/25 10:38:21;;;;;;;5.97;1.80;;;18.40;99.90;;;;;;5092872;28;20419;-79
2022/05/25 10:40:47;;;;;;;7.22;2.13;;;18.60;99.90;;;;;;5075804;28;20044;-80
2022/05/25 10:43:22;;;;;;;6.35;2.50;;;18.70;99.90;;;;;;5092670;28;20044;-80
2022/05/25 10:45:53;;;;;;;4.43;2.28;;;19.10;99.90;;;;;;5075829;28;20492;-80
2022/05/25 10:48:31;;;;;;;5.97;2.35;;;19.30;99.90;;;;;;5075644;28;20135;-80
2022/05/25 10:51:02;;;;;;;7.28;2.58;;;19.40;99.90;;;;;;5075638;28;20088;-80
2022/05/25 10:53:41;;;;;;;8.63;2.47;;;19.30;99.90;;;;;;5092371;28;20051;-80
2022/05/25 10:56:30;;;;;;;5.53;2.30;;;19.30;99.90;;;;;;5075807;28;20127;-80
2022/05/25 10:59:02;;;;;;;4.60;2.10;;;19.20;99.90;;;;;;5075428;28;20512;-80
2022/05/25 11:01:35;;;;;;;4.25;2.00;;;19.30;99.90;;;;;;5093325;28;20496;-80
2022/05/25 11:04:38;;;;;;;5.43;1.58;;;19.50;99.90;;;;;;5093788;28;20043;-80
2022/05/25 11:07:22;;;;;;;5.85;2.03;;;19.50;99.50;;;;;;5094858;28;20044;-79
2022/05/25 11:10:25;;;;;;;4.18;2.65;;;19.40;99.90;;;;;;5077840;28;20044;-80
2022/05/25 11:12:53;;;;;;;5.90;2.20;;;19.50;99.90;;;;;;5076255;28;20554;-80
2022/05/25 11:15:35;;;;;;;6.45;3.30;;;19.60;99.90;;;;;;5076747;28;20393;-80
2022/05/25 11:18:36;;;;;;;4.15;2.22;;;19.60;99.30;;;;;;5094371;28;20040;-80
2022/05/25 11:21:17;;;;;;;5.45;2.40;;;19.60;97.10;;;;;;5076819;28;20492;-81
2022/05/25 11:24:06;;;;;;;5.05;2.63;;;19.60;98.30;;;;;;5077230;28;20051;-79
2022/05/25 11:27:07;;;;;;;6.30;2.60;;;19.60;99.00;;;;;;5093856;28;20111;-80
2022/05/25 11:30:10;;;;;;;6.93;3.03;;;19.40;99.90;;;;;;5017335;28;20496;-80
2022/05/25 11:32:54;;;;;;;7.30;3.33;;;19.20;98.00;;;;;;5077304;28;20044;-80
2022/05/25 11:35:44;;;;;;;7.15;3.42;;;18.90;99.90;;;;;;5094544;28;20415;-80
2022/05/25 11:38:42;;;;;;;7.18;4.22;;;18.80;99.90;;;;;;5078026;28;20150;-80
2022/05/25 11:41:26;;;;;;;9.07;4.50;;;18.60;99.90;;;;;;5079998;28;20059;-81
2022/05/25 11:44:06;;;;;;;6.90;3.90;;;18.30;99.90;;;;;;5080380;28;20040;-81
2022/05/25 11:46:44;;;;;;;8.05;4.10;;;18.20;99.90;;;;;;5079408;28;20420;-80
2022/05/25 11:49:27;;;;;;;6.65;3.65;;;18.10;99.90;;;;;;5096365;28;20052;-80
2022/05/25 11:52:12;;;;;;;6.82;3.97;;;17.90;99.90;;;;;;5096962;28;20044;-80
2022/05/25 11:55:01;;;;;;;9.35;5.40;;;17.70;99.90;;;;;;5079250;28;20557;-80
2022/05/25 11:57:36;;;;;;;9.70;4.82;;;17.50;99.90;;;;;;5078920;28;20044;-79
2022/05/25 12:00:27;;;;;;;12.95;5.50;;;17.00;99.90;;;;;;5079754;28;20106;-79
2022/05/25 12:03:10;;;;;;;12.93;5.85;;;16.70;99.90;;;;;;5095631;28;20123;-79
2022/05/25 12:05:47;;;;;;;7.18;5.47;;;16.50;99.90;;;;;;5095955;28;20533;-79
2022/05/25 12:08:27;;;;;;;7.78;6.28;;;16.50;99.90;;;;;;5096298;28;20047;-79
2022/05/25 12:11:02;;;;;;;9.15;5.97;;;16.90;99.90;;;;;;5079570;28;20102;-79
2022/05/25 12:13:46;;;;;;;9.45;6.07;;;17.20;99.90;;;;;;5079850;28;20094;-79
2022/05/25 12:16:40;;;;;;;10.32;6.45;;;17.50;99.90;;;;;;5079918;28;20044;-79
2022/05/25 12:19:13;;;;;;;6.57;5.80;;;17.80;99.90;;;;;;5095923;28;20522;-80
2022/05/25 12:21:41;;;;;;;11.73;5.53;;;18.10;99.90;;;;;;5097102;28;20090;-80
2022/05/25 12:24:09;;;;;;;10.00;5.75;;;18.20;99.90;;;;;;5097811;28;20090;-79
2022/05/25 12:26:37;;;;;;;8.20;5.03;;;18.40;99.90;;;;;;5081866;28;20113;-80
2022/05/25 12:29:20;;;;;;;8.43;5.15;;;18.40;99.90;;;;;;5099872;28;20099;-80
2022/05/25 12:31:50;;;;;;;10.95;6.22;;;18.30;99.90;;;;;;5099770;28;20048;-80
2022/05/25 12:34:20;;;;;;;8.65;5.82;;;18.20;99.90;;;;;;5082660;28;20048;-80
2022/05/25 12:36:46;;;;;;;8.43;5.95;;;18.10;99.90;;;;;;5099736;28;20504;-79
2022/05/25 12:39:11;;;;;;;7.32;5.10;;;18.00;99.90;;;;;;5082190;28;20050;-80
2022/05/25 12:41:39;;;;;;;7.55;5.03;;;17.90;99.90;;;;;;5099775;28;20054;-80
2022/05/25 12:49:55;;;;;;;9.18;3.65;;;18.20;99.90;;;;;;5099582;28;20082;-81
2022/05/25 12:52:26;;;;;;;6.97;3.88;;;18.30;99.90;;;;;;5080976;28;20048;-81
2022/05/25 12:55:13;;;;;;;5.82;3.00;;;18.40;99.90;;;;;;5082249;28;20047;-80
2022/05/25 12:57:52;;;;;;;8.07;2.40;;;18.50;99.90;;;;;;5082165;28;20047;-80
2022/05/25 13:00:34;;;;;;;8.50;1.67;;;18.70;99.90;;;;;;5081922;28;20044;-80
2022/05/25 13:03:34;;;;;;;5.70;1.30;;;18.80;99.90;;;;;;5082068;28;20036;-80
2022/05/25 13:06:02;;;;;;;6.15;1.15;;;18.70;99.90;;;;;;5081592;28;20274;-81
2022/05/25 13:08:49;;;;;;;10.90;1.73;;;18.70;99.90;;;;;;5082008;28;20040;-79
2022/05/25 13:11:45;;;;;;;4.45;1.17;;;18.80;99.90;;;;;;5082383;28;20044;-81
2022/05/25 13:14:16;;;;;;;7.80;1.33;;;18.90;99.90;;;;;;5098440;28;20567;-81
2022/05/25 13:16:51;;;;;;;6.50;1.30;;;19.20;99.90;;;;;;5082356;28;20051;-80
2022/05/25 13:19:31;;;;;;;8.63;1.30;;;19.30;99.90;;;;;;5098824;28;20051;-80
2022/05/25 13:22:03;;;;;;;6.07;0.90;;;19.20;99.90;;;;;;5096150;28;20526;-80
2022/05/25 13:24:48;;;;;;;8.95;0.90;;;19.00;99.90;;;;;;5079122;28;20051;-80
2022/05/25 13:27:16;;;;;;;5.20;0.95;;;19.00;99.90;;;;;;5096296;28;20051;-80
2022/05/25 13:30:02;;;;;;;6.35;1.10;;;18.90;99.90;;;;;;5077195;28;20040;-80
2022/05/25 13:32:33;;;;;;;4.78;0.70;;;19.00;99.90;;;;;;5077710;28;20040;-80